Time;durP1;ratioP1;P1;durP2;ratioP2;P2;SDS_P1;SDS_P2;PMS_P1;PMS_P2;Temp;Humidity;BMP_temperature;BMP_pressure;BME280_temperature;BME280_humidity;BME280_pressure;Samples;Min_cycle;Max_cycle;Signal;HPM_P1;HPM_P2
2021/01/30 00:02:12;;;;;;;13.40;10.97;;;5.60;99.90;;;;;;5115257;28;20463;-76
2021/01/30 00:04:38;;;;;;;13.30;11.10;;;5.50;99.90;;;;;;5115316;28;20452;-77
2021/01/30 00:07:06;;;;;;;15.60;11.90;;;5.50;99.90;;;;;;5115023;28;20479;-77
2021/01/30 00:09:33;;;;;;;13.97;10.70;;;5.30;99.90;;;;;;5115115;28;20492;-76
2021/01/30 00:12:01;;;;;;;18.33;12.73;;;5.30;99.90;;;;;;5115210;28;20975;-76
2021/01/30 00:14:30;;;;;;;16.67;13.40;;;5.20;99.90;;;;;;5114428;28;20528;-77
2021/01/30 00:16:56;;;;;;;19.50;11.83;;;5.20;99.90;;;;;;5113855;28;20460;-77
2021/01/30 00:19:23;;;;;;;14.17;10.93;;;5.30;99.90;;;;;;5114934;28;20457;-77
2021/01/30 00:21:50;;;;;;;14.90;10.63;;;5.10;99.90;;;;;;5114434;28;20510;-77
2021/01/30 00:24:17;;;;;;;19.83;12.70;;;5.10;99.90;;;;;;5114692;28;20463;-76
2021/01/30 00:26:51;;;;;;;14.10;11.57;;;5.00;99.90;;;;;;5113763;28;20473;-87
2021/01/30 00:29:18;;;;;;;14.97;9.80;;;5.00;99.90;;;;;;5115147;28;20472;-76
2021/01/30 00:31:44;;;;;;;18.50;10.77;;;5.00;99.90;;;;;;5114608;28;20446;-83
2021/01/30 00:34:11;;;;;;;15.67;11.50;;;4.70;99.90;;;;;;5115226;28;20522;-76
2021/01/30 00:36:38;;;;;;;14.77;11.37;;;4.80;99.90;;;;;;5114353;28;20452;-77
2021/01/30 00:39:05;;;;;;;15.10;12.10;;;4.80;99.90;;;;;;5114050;28;20615;-76
2021/01/30 00:41:31;;;;;;;14.70;10.60;;;4.70;99.90;;;;;;5115104;28;20456;-77
2021/01/30 00:43:59;;;;;;;13.20;10.93;;;4.80;99.90;;;;;;5112070;28;20490;-77
2021/01/30 00:46:25;;;;;;;12.13;9.23;;;4.80;99.90;;;;;;5114233;28;20446;-77
2021/01/30 00:48:52;;;;;;;14.77;10.87;;;4.70;99.90;;;;;;5112613;28;20449;-77
2021/01/30 00:51:19;;;;;;;13.73;10.70;;;4.70;99.90;;;;;;5114006;28;20448;-78
2021/01/30 00:53:45;;;;;;;13.97;10.40;;;4.70;99.90;;;;;;5114204;28;20536;-84
2021/01/30 00:56:12;;;;;;;17.40;10.90;;;4.70;99.90;;;;;;5114481;28;20545;-76
2021/01/30 00:58:38;;;;;;;11.93;8.70;;;4.70;99.90;;;;;;5114318;28;20475;-76
2021/01/30 01:01:06;;;;;;;12.67;10.40;;;4.70;99.90;;;;;;5113674;28;20930;-77
2021/01/30 01:03:32;;;;;;;13.17;8.60;;;4.60;99.90;;;;;;5114205;28;20458;-77
2021/01/30 01:05:59;;;;;;;14.07;10.17;;;4.70;99.90;;;;;;5113985;28;20458;-76
2021/01/30 01:08:25;;;;;;;14.23;9.93;;;4.60;99.90;;;;;;5097626;28;20480;-76
2021/01/30 01:10:51;;;;;;;15.30;10.17;;;4.60;99.90;;;;;;5093353;28;20539;-77
2021/01/30 01:13:18;;;;;;;12.87;9.87;;;4.50;99.90;;;;;;5093511;28;20554;-76
2021/01/30 01:15:45;;;;;;;12.63;11.33;;;4.40;99.90;;;;;;5103625;28;20781;-84
2021/01/30 01:18:12;;;;;;;15.00;10.70;;;4.40;99.90;;;;;;5114127;28;20940;-76
2021/01/30 01:20:39;;;;;;;12.97;10.07;;;4.30;99.90;;;;;;5114377;28;20463;-76
2021/01/30 01:23:05;;;;;;;11.33;8.70;;;4.20;99.90;;;;;;5113453;28;20443;-77
2021/01/30 01:25:32;;;;;;;13.20;8.43;;;4.40;99.90;;;;;;5114703;28;20443;-76
2021/01/30 01:27:58;;;;;;;10.47;8.47;;;4.40;99.90;;;;;;5113630;28;20442;-76
2021/01/30 01:30:26;;;;;;;15.43;9.63;;;4.40;99.90;;;;;;5114096;28;20496;-76
2021/01/30 01:32:53;;;;;;;9.20;8.30;;;4.40;99.90;;;;;;5114130;28;20897;-77
2021/01/30 01:35:24;;;;;;;11.80;8.07;;;4.50;99.90;;;;;;5115483;28;20442;-77
2021/01/30 01:37:51;;;;;;;10.00;8.90;;;4.50;99.90;;;;;;5115954;28;20447;-78
2021/01/30 01:40:21;;;;;;;11.70;7.90;;;4.40;99.90;;;;;;5118364;28;20538;-76
2021/01/30 01:42:48;;;;;;;9.90;8.30;;;4.40;99.90;;;;;;5118632;28;20477;-80
2021/01/30 01:45:15;;;;;;;14.87;9.53;;;4.40;99.90;;;;;;5118161;28;20906;-76
2021/01/30 01:47:44;;;;;;;13.60;8.17;;;4.30;99.90;;;;;;5117687;28;20911;-76
2021/01/30 01:50:28;;;;;;;10.33;8.90;;;4.30;99.90;;;;;;5117355;28;21042;-76
2021/01/30 01:53:02;;;;;;;10.80;8.87;;;4.30;99.90;;;;;;5117114;28;20461;-77
2021/01/30 01:55:29;;;;;;;9.13;7.87;;;4.30;99.90;;;;;;5118070;28;20436;-77
2021/01/30 01:57:58;;;;;;;12.40;8.80;;;4.20;99.90;;;;;;5117099;28;20456;-77
2021/01/30 02:00:25;;;;;;;10.80;8.50;;;4.10;99.90;;;;;;5118163;28;20436;-77
2021/01/30 02:02:54;;;;;;;9.80;8.80;;;4.10;99.90;;;;;;5117323;28;20569;-79
2021/01/30 02:05:25;;;;;;;9.63;8.63;;;4.00;99.90;;;;;;5117899;28;20920;-77
2021/01/30 02:07:51;;;;;;;12.30;10.27;;;4.10;99.90;;;;;;5116976;28;20775;-77
2021/01/30 02:10:24;;;;;;;14.37;12.17;;;4.00;99.90;;;;;;5117864;28;20822;-76
2021/01/30 02:12:53;;;;;;;17.30;13.50;;;3.90;99.90;;;;;;5116621;28;20538;-80
2021/01/30 02:15:22;;;;;;;17.80;12.77;;;3.70;99.90;;;;;;5117289;28;20442;-77
2021/01/30 02:17:58;;;;;;;20.30;14.97;;;3.70;99.90;;;;;;5116756;28;20454;-81
2021/01/30 02:21:03;;;;;;;50.23;35.30;;;3.70;99.90;;;;;;5117408;28;20446;-77
2021/01/30 02:24:32;;;;;;;64.33;41.10;;;3.60;99.90;;;;;;5117453;28;20451;-77
2021/01/30 02:27:33;;;;;;;41.77;29.80;;;3.50;99.90;;;;;;5116982;28;20447;-77
2021/01/30 02:30:26;;;;;;;42.17;28.73;;;3.40;99.90;;;;;;5116982;28;20496;-77
2021/01/30 02:33:27;;;;;;;63.87;45.57;;;3.30;99.90;;;;;;5116638;28;20433;-77
2021/01/30 02:36:26;;;;;;;45.03;31.40;;;3.20;99.90;;;;;;5117237;28;20440;-77
2021/01/30 02:38:58;;;;;;;29.13;20.37;;;3.10;99.90;;;;;;5117305;28;20437;-77
2021/01/30 02:41:28;;;;;;;25.10;18.53;;;3.10;99.90;;;;;;5117786;28;20412;-76
2021/01/30 02:43:58;;;;;;;24.90;16.67;;;3.10;99.90;;;;;;5117258;28;20449;-77
2021/01/30 02:46:29;;;;;;;26.20;18.50;;;3.00;99.90;;;;;;5117520;28;20476;-76
2021/01/30 02:49:01;;;;;;;29.93;19.60;;;3.10;99.90;;;;;;5115916;28;20452;-76
2021/01/30 02:51:34;;;;;;;24.92;18.35;;;2.80;99.90;;;;;;5117340;28;20798;-77
2021/01/30 02:54:03;;;;;;;29.03;19.37;;;2.80;99.90;;;;;;5117111;28;20191;-77
2021/01/30 02:56:29;;;;;;;33.63;21.60;;;2.80;99.90;;;;;;5117285;28;20463;-77
2021/01/30 02:59:05;;;;;;;28.20;18.80;;;2.70;99.90;;;;;;5116847;28;20486;-77
2021/01/30 03:01:35;;;;;;;26.63;19.43;;;2.80;99.90;;;;;;5116800;28;20506;-76
2021/01/30 03:04:04;;;;;;;26.23;18.77;;;2.90;99.90;;;;;;5116585;28;20444;-76
2021/01/30 03:06:37;;;;;;;27.07;19.67;;;2.70;99.90;;;;;;5115823;28;20990;-77
2021/01/30 03:09:12;;;;;;;26.43;18.67;;;2.70;99.90;;;;;;5113516;28;20921;-76
2021/01/30 03:11:43;;;;;;;24.27;16.40;;;2.60;99.90;;;;;;5109966;28;20469;-77
2021/01/30 03:14:17;;;;;;;24.40;18.40;;;2.60;99.90;;;;;;5095267;28;20710;-76
2021/01/30 03:16:44;;;;;;;21.70;15.40;;;2.60;99.90;;;;;;5096031;28;20522;-76
2021/01/30 03:19:18;;;;;;;22.50;16.67;;;2.40;99.90;;;;;;5095550;28;20517;-76
2021/01/30 03:21:48;;;;;;;22.40;16.17;;;2.30;99.90;;;;;;5095721;28;20423;-81
2021/01/30 03:24:14;;;;;;;23.87;17.27;;;2.40;99.90;;;;;;5095096;28;20449;-77
2021/01/30 03:26:43;;;;;;;18.73;15.30;;;2.40;99.90;;;;;;5095904;28;20453;-77
2021/01/30 03:29:10;;;;;;;21.10;16.10;;;2.40;99.90;;;;;;5094409;28;20222;-76
2021/01/30 03:31:38;;;;;;;21.15;15.35;;;2.20;99.90;;;;;;5095402;28;20860;-76
2021/01/30 03:34:05;;;;;;;23.55;17.48;;;2.10;99.90;;;;;;5094589;28;20663;-76
2021/01/30 03:36:31;;;;;;;24.20;18.00;;;2.10;99.90;;;;;;5109388;28;20210;-76
2021/01/30 03:38:58;;;;;;;21.83;16.27;;;2.00;99.90;;;;;;5114326;28;20455;-77
2021/01/30 03:41:25;;;;;;;19.60;15.40;;;2.00;99.90;;;;;;5115694;28;20456;-76
2021/01/30 03:43:51;;;;;;;20.20;15.63;;;2.00;99.90;;;;;;5115233;28;20453;-86
2021/01/30 03:46:17;;;;;;;17.80;15.07;;;1.90;99.90;;;;;;5115162;28;20201;-77
2021/01/30 03:48:44;;;;;;;17.60;15.50;;;2.00;99.90;;;;;;5115575;28;20202;-76
2021/01/30 03:51:10;;;;;;;17.08;13.15;;;2.00;99.90;;;;;;5114650;28;20473;-76
2021/01/30 03:53:37;;;;;;;20.97;16.90;;;2.00;99.90;;;;;;5115070;28;20212;-77
2021/01/30 03:56:05;;;;;;;18.57;15.10;;;2.00;99.90;;;;;;5113975;28;20555;-77
2021/01/30 03:58:31;;;;;;;19.43;15.43;;;2.00;99.90;;;;;;5115051;28;20483;-77
2021/01/30 04:00:58;;;;;;;17.57;14.30;;;1.90;99.90;;;;;;5114419;28;20783;-76
2021/01/30 04:03:24;;;;;;;20.97;15.47;;;1.90;99.90;;;;;;5114838;28;20459;-76
2021/01/30 04:05:50;;;;;;;22.48;16.90;;;1.90;99.90;;;;;;5115102;28;20454;-77
2021/01/30 04:08:17;;;;;;;19.13;15.18;;;1.80;99.90;;;;;;5106818;28;20215;-76
2021/01/30 04:10:43;;;;;;;22.08;16.67;;;1.80;99.90;;;;;;5111437;28;20219;-76
2021/01/30 04:13:11;;;;;;;21.08;16.02;;;1.70;99.90;;;;;;5114486;28;20286;-77
2021/01/30 04:15:40;;;;;;;20.58;17.10;;;1.80;99.90;;;;;;5114563;28;20214;-77
2021/01/30 04:18:07;;;;;;;22.13;16.45;;;1.70;99.90;;;;;;5114084;28;20286;-77
2021/01/30 04:20:34;;;;;;;23.48;17.60;;;1.80;99.90;;;;;;5114341;28;20285;-76
2021/01/30 04:23:00;;;;;;;22.00;17.88;;;1.70;99.90;;;;;;5113528;28;20197;-76
2021/01/30 04:25:27;;;;;;;26.05;18.90;;;1.70;99.90;;;;;;5114674;28;20575;-76
2021/01/30 04:27:54;;;;;;;24.40;18.88;;;1.70;99.90;;;;;;5114620;28;20547;-85
2021/01/30 04:30:24;;;;;;;26.63;20.10;;;1.70;99.90;;;;;;5113913;28;20214;-77
2021/01/30 04:32:50;;;;;;;25.77;19.83;;;1.70;99.90;;;;;;5114256;28;20294;-77
2021/01/30 04:35:18;;;;;;;27.27;20.38;;;1.70;99.90;;;;;;5113705;28;20200;-77
2021/01/30 04:37:45;;;;;;;25.75;18.55;;;1.70;99.90;;;;;;5114461;28;20203;-76
2021/01/30 04:40:21;;;;;;;25.58;19.80;;;1.70;99.90;;;;;;5113661;28;20206;-77
2021/01/30 04:42:53;;;;;;;26.13;18.58;;;1.60;99.90;;;;;;5093563;28;20184;-77
2021/01/30 04:45:28;;;;;;;23.33;17.40;;;1.60;99.90;;;;;;5093065;28;20281;-77
2021/01/30 04:48:04;;;;;;;24.52;18.05;;;1.60;99.90;;;;;;5093499;28;20620;-84
2021/01/30 04:50:36;;;;;;;22.02;16.17;;;1.50;99.90;;;;;;5094176;28;20215;-76
2021/01/30 04:53:11;;;;;;;23.13;17.85;;;1.50;99.90;;;;;;5093171;28;20221;-77
2021/01/30 04:55:54;;;;;;;20.90;16.27;;;1.50;99.90;;;;;;5108657;28;20191;-77
2021/01/30 04:58:27;;;;;;;17.23;13.80;;;1.70;99.90;;;;;;5113098;28;20562;-77
2021/01/30 05:01:13;;;;;;;15.75;13.52;;;1.60;99.90;;;;;;5113404;28;20202;-85
2021/01/30 05:03:58;;;;;;;17.17;13.23;;;1.70;99.90;;;;;;5114279;28;20187;-76
2021/01/30 05:06:35;;;;;;;18.38;14.27;;;1.60;99.90;;;;;;5114125;28;20531;-77
2021/01/30 05:09:08;;;;;;;17.00;12.27;;;1.60;99.90;;;;;;5107646;28;20285;-77
2021/01/30 05:11:37;;;;;;;16.90;12.23;;;1.60;99.90;;;;;;5093452;28;20598;-77
2021/01/30 05:14:07;;;;;;;16.73;12.40;;;1.60;99.90;;;;;;5092354;28;20206;-77
2021/01/30 05:16:38;;;;;;;15.80;11.65;;;1.70;99.90;;;;;;5093306;28;20244;-76
2021/01/30 05:19:07;;;;;;;13.90;11.40;;;1.70;99.90;;;;;;5103378;28;20634;-77
2021/01/30 05:21:39;;;;;;;15.85;12.95;;;1.70;99.90;;;;;;5113504;28;20939;-76
2021/01/30 05:24:08;;;;;;;15.57;12.50;;;1.80;99.90;;;;;;5112181;28;20196;-77
2021/01/30 05:26:43;;;;;;;16.30;12.50;;;1.60;99.90;;;;;;5113445;28;20640;-76
2021/01/30 05:29:13;;;;;;;16.83;13.20;;;1.60;99.90;;;;;;5113215;28;20244;-76
2021/01/30 05:31:49;;;;;;;15.57;12.73;;;1.50;99.90;;;;;;5114129;28;20653;-76
2021/01/30 05:34:18;;;;;;;16.77;12.52;;;1.50;99.90;;;;;;5112954;28;20187;-77
2021/01/30 05:36:53;;;;;;;17.25;12.38;;;1.60;99.90;;;;;;5113959;28;20200;-77
2021/01/30 05:39:41;;;;;;;15.60;12.68;;;1.60;99.90;;;;;;5113564;28;20194;-76
2021/01/30 05:42:13;;;;;;;13.82;11.77;;;1.60;99.90;;;;;;5113631;28;20208;-76
2021/01/30 05:44:46;;;;;;;15.95;11.70;;;1.50;99.90;;;;;;5113983;28;20203;-77
2021/01/30 05:47:18;;;;;;;10.80;9.70;;;1.50;99.90;;;;;;5113844;28;20223;-77
2021/01/30 05:49:56;;;;;;;12.35;10.00;;;1.50;99.90;;;;;;5114240;28;20222;-76
2021/01/30 05:52:28;;;;;;;12.07;10.10;;;1.40;99.90;;;;;;5113497;28;20680;-77
2021/01/30 05:54:54;;;;;;;11.30;9.40;;;1.50;99.90;;;;;;5113658;28;20190;-77
2021/01/30 05:57:20;;;;;;;9.35;7.95;;;1.50;99.90;;;;;;5113068;28;20718;-76
2021/01/30 05:59:49;;;;;;;11.05;9.50;;;1.50;99.90;;;;;;5113435;28;20238;-77
2021/01/30 06:02:18;;;;;;;11.68;9.77;;;1.40;99.90;;;;;;5113099;28;20324;-77
2021/01/30 06:04:45;;;;;;;9.75;8.70;;;1.40;99.90;;;;;;5113432;28;20223;-77
2021/01/30 06:07:33;;;;;;;10.40;9.25;;;1.50;99.90;;;;;;5113291;28;20620;-77
2021/01/30 06:10:23;;;;;;;11.13;8.93;;;1.60;99.90;;;;;;5112495;28;20221;-86
2021/01/30 06:13:07;;;;;;;11.77;10.23;;;1.50;99.90;;;;;;5104803;28;20283;-76
2021/01/30 06:15:35;;;;;;;12.77;9.85;;;1.60;99.90;;;;;;5107751;28;20187;-77
2021/01/30 06:18:27;;;;;;;12.15;9.73;;;1.60;99.90;;;;;;5113295;28;20259;-78
2021/01/30 06:20:58;;;;;;;11.48;9.93;;;1.50;99.90;;;;;;5114014;28;20203;-77
2021/01/30 06:23:25;;;;;;;12.02;9.80;;;1.50;99.90;;;;;;5113772;28;20289;-77
2021/01/30 06:25:53;;;;;;;9.40;8.10;;;1.50;99.90;;;;;;5116827;28;20199;-77
2021/01/30 06:28:24;;;;;;;10.77;9.68;;;1.50;99.90;;;;;;5116893;28;20285;-77
2021/01/30 06:30:51;;;;;;;10.15;8.60;;;1.50;99.90;;;;;;5117479;28;20587;-76
2021/01/30 06:33:27;;;;;;;9.57;7.70;;;1.50;99.90;;;;;;5116692;28;20263;-77
2021/01/30 06:36:07;;;;;;;9.43;7.63;;;1.60;99.90;;;;;;5117264;28;20190;-77
2021/01/30 06:38:39;;;;;;;9.52;8.52;;;1.50;99.90;;;;;;5117173;28;20515;-76
2021/01/30 06:41:13;;;;;;;9.20;8.20;;;1.50;99.90;;;;;;5116890;28;20618;-77
2021/01/30 06:43:45;;;;;;;10.50;8.73;;;1.50;99.90;;;;;;5117303;28;20261;-76
2021/01/30 06:46:13;;;;;;;8.88;7.70;;;1.40;99.90;;;;;;5116749;28;20250;-76
2021/01/30 06:48:44;;;;;;;8.85;7.82;;;1.40;99.90;;;;;;5117222;28;20206;-76
2021/01/30 06:51:31;;;;;;;10.52;8.55;;;1.40;99.90;;;;;;5115391;28;20214;-77
2021/01/30 06:54:17;;;;;;;10.48;8.80;;;1.40;99.90;;;;;;5116143;28;20222;-76
2021/01/30 06:56:44;;;;;;;11.68;9.52;;;1.40;99.90;;;;;;5115899;28;20294;-77
2021/01/30 06:59:17;;;;;;;10.43;9.40;;;1.50;99.90;;;;;;5114865;28;20254;-77
2021/01/30 07:01:46;;;;;;;10.38;8.48;;;1.50;99.90;;;;;;5116022;28;20202;-77
2021/01/30 07:04:42;;;;;;;8.48;7.55;;;1.40;99.90;;;;;;5115118;28;20537;-76
2021/01/30 07:07:19;;;;;;;9.23;7.18;;;1.40;99.90;;;;;;5115196;28;20186;-76
2021/01/30 07:10:14;;;;;;;8.43;7.63;;;1.40;99.90;;;;;;5113744;28;20672;-76
2021/01/30 07:12:50;;;;;;;9.43;8.35;;;1.40;99.90;;;;;;5115322;27;20210;-77
2021/01/30 07:15:23;;;;;;;10.13;8.88;;;1.50;99.90;;;;;;5112915;28;20191;-77
2021/01/30 07:18:02;;;;;;;6.65;6.05;;;1.50;99.90;;;;;;5095239;28;20202;-77
2021/01/30 07:20:42;;;;;;;8.55;7.10;;;1.40;99.90;;;;;;5101134;28;20622;-76
2021/01/30 07:23:14;;;;;;;14.50;9.20;;;1.30;99.90;;;;;;5113041;28;20185;-76
2021/01/30 07:25:52;;;;;;;8.27;6.93;;;1.20;99.90;;;;;;5115336;28;20201;-76
2021/01/30 07:28:25;;;;;;;7.45;6.75;;;1.20;99.90;;;;;;5115063;28;20193;-77
2021/01/30 07:30:59;;;;;;;7.57;6.80;;;1.20;99.90;;;;;;5115689;28;20558;-76
2021/01/30 07:33:31;;;;;;;6.43;5.82;;;1.10;99.90;;;;;;5115282;28;20253;-76
2021/01/30 07:36:04;;;;;;;7.50;6.70;;;1.20;99.90;;;;;;5114162;28;20198;-78
2021/01/30 07:38:42;;;;;;;6.10;5.38;;;1.20;99.90;;;;;;5114948;28;20281;-76
2021/01/30 07:41:18;;;;;;;6.78;6.07;;;1.20;99.90;;;;;;5114814;28;20201;-76
2021/01/30 07:43:49;;;;;;;6.60;5.90;;;1.20;99.90;;;;;;5114784;28;20280;-76
2021/01/30 07:46:19;;;;;;;7.85;6.30;;;1.20;99.90;;;;;;5114285;28;20187;-76
2021/01/30 07:48:51;;;;;;;6.70;6.10;;;1.20;99.90;;;;;;5115357;28;20195;-76
2021/01/30 07:51:32;;;;;;;7.30;5.70;;;1.30;99.90;;;;;;5114007;28;20658;-76
2021/01/30 07:53:59;;;;;;;6.15;5.20;;;1.30;99.90;;;;;;5115213;28;20297;-77
2021/01/30 07:56:43;;;;;;;6.50;5.40;;;1.30;99.90;;;;;;5106676;28;20301;-76
2021/01/30 07:59:24;;;;;;;6.90;5.97;;;1.40;99.90;;;;;;5105155;28;20291;-77
2021/01/30 08:02:24;;;;;;;7.32;6.03;;;1.40;99.90;;;;;;5114650;28;20195;-76
2021/01/30 08:05:34;;;;;;;7.75;5.32;;;1.50;99.90;;;;;;5074418;28;20197;-76
2021/01/30 08:08:11;;;;;;;6.10;4.35;;;1.50;99.90;;;;;;5094304;28;20192;-76
2021/01/30 08:10:49;;;;;;;5.05;3.95;;;1.40;99.90;;;;;;5111014;28;20698;-77
2021/01/30 08:13:31;;;;;;;6.03;4.78;;;1.40;99.90;;;;;;5114442;28;20199;-77
2021/01/30 08:16:09;;;;;;;7.13;4.50;;;1.40;99.90;;;;;;5118084;28;20201;-76
2021/01/30 08:18:38;;;;;;;5.75;5.05;;;1.50;99.90;;;;;;5114298;28;20278;-76
2021/01/30 08:21:25;;;;;;;6.40;5.13;;;1.40;99.90;;;;;;5113663;28;20580;-82
2021/01/30 08:24:01;;;;;;;8.05;6.10;;;1.40;99.90;;;;;;5110319;28;20198;-76
2021/01/30 08:26:32;;;;;;;6.70;5.68;;;1.40;99.90;;;;;;5114206;28;20286;-76
2021/01/30 08:29:11;;;;;;;7.47;5.60;;;1.40;99.90;;;;;;5114632;28;20622;-79
2021/01/30 08:31:41;;;;;;;6.00;5.40;;;1.50;99.90;;;;;;5114691;28;20354;-76
2021/01/30 08:34:11;;;;;;;5.60;4.68;;;1.60;99.90;;;;;;5113779;28;20192;-84
2021/01/30 08:36:40;;;;;;;6.10;5.50;;;1.50;99.90;;;;;;5113518;28;20443;-76
2021/01/30 08:39:20;;;;;;;5.55;4.90;;;1.50;99.90;;;;;;5113750;28;20202;-83
2021/01/30 08:41:50;;;;;;;6.50;5.55;;;1.60;99.90;;;;;;5114156;28;20191;-76
2021/01/30 08:44:28;;;;;;;6.63;5.53;;;1.60;99.90;;;;;;5113392;28;20289;-76
2021/01/30 08:47:07;;;;;;;6.22;4.95;;;1.50;99.90;;;;;;5113590;28;20223;-76
2021/01/30 08:49:33;;;;;;;9.07;6.03;;;1.60;99.90;;;;;;5114130;28;20698;-76
2021/01/30 08:52:32;;;;;;;7.80;5.32;;;1.70;99.90;;;;;;5113386;28;20467;-76
2021/01/30 08:55:31;;;;;;;6.15;4.72;;;1.60;99.90;;;;;;5114344;28;20195;-76
2021/01/30 08:57:58;;;;;;;6.65;4.75;;;1.60;99.90;;;;;;5114136;28;20292;-76
2021/01/30 09:00:47;;;;;;;5.53;4.40;;;1.60;99.90;;;;;;5112901;28;20192;-77
2021/01/30 09:03:38;;;;;;;7.13;4.63;;;1.60;99.90;;;;;;5092659;28;20192;-76
2021/01/30 09:06:06;;;;;;;5.60;4.47;;;1.70;99.90;;;;;;5110113;28;20192;-83
2021/01/30 09:08:43;;;;;;;6.03;4.80;;;1.70;99.90;;;;;;5112009;28;20204;-77
2021/01/30 09:11:40;;;;;;;7.05;5.10;;;1.80;99.90;;;;;;5111107;28;20560;-77
2021/01/30 09:14:23;;;;;;;5.78;4.93;;;1.90;99.90;;;;;;5112840;28;20210;-83
2021/01/30 09:16:59;;;;;;;6.80;5.50;;;2.20;99.90;;;;;;5095391;28;20287;-76
2021/01/30 09:19:33;;;;;;;6.43;5.40;;;2.30;99.90;;;;;;5112137;28;20775;-76
2021/01/30 09:22:10;;;;;;;6.10;5.40;;;2.40;99.90;;;;;;5112623;28;20191;-76
2021/01/30 09:25:18;;;;;;;6.57;5.30;;;2.50;99.90;;;;;;5098214;28;20918;-76
2021/01/30 09:27:58;;;;;;;10.73;5.20;;;2.50;99.90;;;;;;5003490;28;20202;-77
2021/01/30 09:30:39;;;;;;;5.30;4.50;;;2.60;99.90;;;;;;5083423;28;20964;-78
2021/01/30 09:33:16;;;;;;;6.13;4.60;;;2.70;99.90;;;;;;5102185;28;20506;-83
2021/01/30 09:35:45;;;;;;;5.60;4.60;;;2.60;99.90;;;;;;5108291;28;20532;-80
2021/01/30 09:38:25;;;;;;;7.75;5.32;;;2.70;99.90;;;;;;5100555;28;20206;-78
2021/01/30 09:41:05;;;;;;;6.23;4.57;;;2.70;99.90;;;;;;5095920;28;20199;-79
2021/01/30 09:43:35;;;;;;;6.15;5.28;;;2.60;99.90;;;;;;5102770;28;20458;-77
2021/01/30 09:46:06;;;;;;;6.22;4.90;;;2.60;99.90;;;;;;5112647;28;20188;-78
2021/01/30 09:48:37;;;;;;;5.70;4.65;;;2.40;99.90;;;;;;5111878;28;20192;-76
2021/01/30 09:51:09;;;;;;;6.20;5.20;;;2.40;99.90;;;;;;5112359;28;20674;-75
2021/01/30 09:53:42;;;;;;;6.60;4.60;;;2.40;99.90;;;;;;5112402;28;20758;-75
2021/01/30 09:56:11;;;;;;;6.23;4.87;;;2.40;99.90;;;;;;5111187;28;20529;-82
2021/01/30 09:58:54;;;;;;;7.17;4.67;;;2.50;99.90;;;;;;5114000;28;20471;-76
2021/01/30 10:01:30;;;;;;;6.50;5.30;;;2.40;99.90;;;;;;5115508;28;20445;-76
2021/01/30 10:03:56;;;;;;;7.20;5.70;;;2.50;99.90;;;;;;5104373;28;20477;-76
2021/01/30 10:06:29;;;;;;;7.57;4.95;;;2.40;99.90;;;;;;5111869;28;20445;-76
2021/01/30 10:09:11;;;;;;;7.50;5.47;;;2.40;99.90;;;;;;5113946;28;20219;-76
2021/01/30 10:11:43;;;;;;;6.73;6.03;;;2.30;99.90;;;;;;5105335;28;20481;-78
2021/01/30 10:14:15;;;;;;;7.83;6.10;;;2.30;99.90;;;;;;5111088;28;20952;-84
2021/01/30 10:16:44;;;;;;;7.10;6.40;;;2.30;99.90;;;;;;5115535;28;20445;-76
2021/01/30 10:19:23;;;;;;;6.60;5.50;;;2.40;99.90;;;;;;5115836;28;20250;-83
2021/01/30 10:21:53;;;;;;;5.87;5.27;;;2.50;99.90;;;;;;5106141;28;20448;-80
2021/01/30 10:24:25;;;;;;;5.80;5.13;;;2.50;99.90;;;;;;5115022;28;20461;-74
2021/01/30 10:26:52;;;;;;;6.57;5.28;;;2.60;99.90;;;;;;5115524;28;20898;-75
2021/01/30 10:29:23;;;;;;;5.90;4.83;;;2.70;99.90;;;;;;5115305;28;20195;-78
2021/01/30 10:31:54;;;;;;;6.53;5.33;;;2.70;99.90;;;;;;5116312;28;20469;-76
2021/01/30 10:34:26;;;;;;;5.20;4.30;;;2.60;99.90;;;;;;5115135;28;20437;-76
2021/01/30 10:36:57;;;;;;;5.83;4.77;;;2.70;99.90;;;;;;5113323;28;20203;-76
2021/01/30 10:39:25;;;;;;;7.47;4.90;;;2.90;99.90;;;;;;5103095;28;20842;-76
2021/01/30 10:41:52;;;;;;;5.83;4.50;;;2.90;99.90;;;;;;5112934;28;20465;-76
2021/01/30 10:44:30;;;;;;;5.80;4.83;;;3.20;99.90;;;;;;5114314;28;20485;-76
2021/01/30 10:47:00;;;;;;;5.40;3.87;;;3.50;99.90;;;;;;5115679;28;20431;-76
2021/01/30 10:49:30;;;;;;;5.67;4.40;;;3.60;99.90;;;;;;5114854;28;20459;-76
2021/01/30 10:52:04;;;;;;;6.37;4.20;;;3.70;99.90;;;;;;5111717;28;20581;-77
2021/01/30 10:54:32;;;;;;;4.87;3.27;;;4.00;99.90;;;;;;5107194;28;20458;-77
2021/01/30 10:57:22;;;;;;;10.67;3.57;;;4.00;99.90;;;;;;5106645;28;20943;-78
2021/01/30 10:59:52;;;;;;;5.83;3.33;;;4.00;99.90;;;;;;5107489;28;20519;-76
2021/01/30 11:02:27;;;;;;;4.20;3.47;;;4.00;99.90;;;;;;5116030;28;20516;-75
2021/01/30 11:05:09;;;;;;;4.07;3.13;;;4.00;99.90;;;;;;5097477;28;20438;-79
2021/01/30 11:07:43;;;;;;;3.50;2.80;;;3.90;99.90;;;;;;5114748;28;20484;-77
2021/01/30 11:10:22;;;;;;;4.63;3.40;;;4.00;99.90;;;;;;5109861;28;20558;-84
2021/01/30 11:12:49;;;;;;;5.00;3.20;;;4.20;99.90;;;;;;5110182;28;20453;-78
2021/01/30 11:15:19;;;;;;;5.00;3.27;;;4.20;99.90;;;;;;5108027;28;20542;-78
2021/01/30 11:17:45;;;;;;;3.20;2.57;;;4.10;99.90;;;;;;5099320;28;20504;-77
2021/01/30 11:20:13;;;;;;;3.00;2.00;;;4.00;99.90;;;;;;5110093;28;20765;-83
2021/01/30 11:22:54;;;;;;;3.50;2.03;;;4.10;99.90;;;;;;5114710;28;20775;-77
2021/01/30 11:25:34;;;;;;;3.13;2.17;;;4.00;99.90;;;;;;5114349;28;20460;-77
2021/01/30 11:28:00;;;;;;;2.37;1.57;;;3.80;99.90;;;;;;5107546;28;20466;-80
2021/01/30 11:30:29;;;;;;;3.70;2.17;;;3.80;99.90;;;;;;5113669;28;20566;-77
2021/01/30 11:32:57;;;;;;;3.20;1.80;;;3.70;99.90;;;;;;5115171;28;20788;-77
2021/01/30 11:35:28;;;;;;;3.07;2.10;;;3.50;99.90;;;;;;5114226;28;20449;-76
2021/01/30 11:37:59;;;;;;;3.40;2.10;;;3.60;99.90;;;;;;5100014;28;20447;-78
2021/01/30 11:40:25;;;;;;;3.60;2.47;;;3.80;99.90;;;;;;5111394;28;20447;-79
2021/01/30 11:42:52;;;;;;;2.23;1.70;;;3.80;99.90;;;;;;5108527;28;20462;-81
2021/01/30 11:45:19;;;;;;;2.90;1.70;;;3.70;99.90;;;;;;5105943;28;20449;-77
2021/01/30 11:47:46;;;;;;;2.53;1.70;;;3.90;99.90;;;;;;5114770;28;20473;-77
2021/01/30 11:50:13;;;;;;;4.47;2.00;;;4.00;99.90;;;;;;5106078;28;20934;-81
2021/01/30 11:52:40;;;;;;;2.90;1.77;;;4.00;99.90;;;;;;5114375;28;20450;-78
2021/01/30 11:55:07;;;;;;;2.20;1.40;;;4.10;99.90;;;;;;5114398;28;20453;-77
2021/01/30 11:57:34;;;;;;;3.40;1.70;;;4.00;99.90;;;;;;5104975;27;20832;-78
2021/01/30 12:00:00;;;;;;;2.40;1.70;;;4.00;99.90;;;;;;5113915;28;20556;-78
2021/01/30 12:02:30;;;;;;;2.90;1.70;;;4.10;99.90;;;;;;5109463;28;20497;-77
2021/01/30 12:05:01;;;;;;;3.80;1.67;;;4.10;99.90;;;;;;5114932;28;20913;-77
2021/01/30 12:07:28;;;;;;;2.73;1.83;;;4.10;99.90;;;;;;5114376;28;20538;-76
2021/01/30 12:09:54;;;;;;;3.30;1.93;;;4.20;99.90;;;;;;5110192;28;20473;-77
2021/01/30 12:12:21;;;;;;;3.93;1.90;;;4.30;99.90;;;;;;5104814;28;20531;-76
2021/01/30 12:14:50;;;;;;;3.70;2.33;;;4.30;99.90;;;;;;5105470;28;20478;-77
2021/01/30 12:17:30;;;;;;;2.90;2.00;;;4.40;99.90;;;;;;5095839;28;20452;-77
2021/01/30 12:19:57;;;;;;;3.07;2.03;;;4.30;99.90;;;;;;5112251;28;20451;-77
2021/01/30 12:22:24;;;;;;;6.43;2.67;;;4.30;99.90;;;;;;5109232;28;20964;-77
2021/01/30 12:24:51;;;;;;;3.93;2.10;;;4.20;99.90;;;;;;5112118;28;20463;-76
2021/01/30 12:27:18;;;;;;;3.27;2.07;;;4.30;99.90;;;;;;5114198;28;20880;-75
2021/01/30 12:29:46;;;;;;;3.60;1.70;;;4.20;99.90;;;;;;5114940;28;20452;-76
2021/01/30 12:32:13;;;;;;;4.00;2.43;;;4.30;99.90;;;;;;5114551;28;20569;-82
2021/01/30 12:34:39;;;;;;;5.10;1.97;;;4.20;99.90;;;;;;5113918;28;20513;-75
2021/01/30 12:37:07;;;;;;;2.47;1.90;;;4.20;99.90;;;;;;5113494;28;20485;-75
2021/01/30 12:39:34;;;;;;;3.40;2.30;;;4.30;99.90;;;;;;5113318;28;20455;-76
2021/01/30 12:42:00;;;;;;;3.23;2.50;;;4.40;99.90;;;;;;5114292;28;20547;-77
2021/01/30 12:44:26;;;;;;;4.53;2.13;;;4.50;99.90;;;;;;5113341;28;20456;-76
2021/01/30 12:46:53;;;;;;;3.30;2.00;;;4.50;99.90;;;;;;5113306;28;20456;-76
2021/01/30 12:49:20;;;;;;;3.70;2.37;;;4.60;99.90;;;;;;5113200;28;20590;-76
2021/01/30 12:51:47;;;;;;;3.63;2.07;;;4.50;99.90;;;;;;5113708;28;20571;-76
2021/01/30 12:54:17;;;;;;;5.43;2.53;;;4.50;99.90;;;;;;5113025;28;20453;-84
2021/01/30 12:56:45;;;;;;;2.73;2.10;;;4.40;99.90;;;;;;5114352;28;20451;-76
2021/01/30 12:59:12;;;;;;;3.03;2.23;;;4.40;99.90;;;;;;5110115;28;21047;-83
2021/01/30 13:01:38;;;;;;;3.67;2.60;;;4.40;99.90;;;;;;5112897;28;20449;-76
2021/01/30 13:04:05;;;;;;;3.00;2.47;;;4.20;99.90;;;;;;5106757;28;20455;-77
2021/01/30 13:06:31;;;;;;;3.17;2.40;;;4.30;99.90;;;;;;5095939;28;20968;-76
2021/01/30 13:08:58;;;;;;;4.20;2.83;;;4.20;99.90;;;;;;5107269;28;20485;-79
2021/01/30 13:11:25;;;;;;;3.37;2.47;;;4.20;99.90;;;;;;5110637;28;20486;-76
2021/01/30 13:13:51;;;;;;;5.17;2.33;;;4.30;99.90;;;;;;5113542;28;20498;-76
2021/01/30 13:16:18;;;;;;;3.83;3.03;;;4.30;99.90;;;;;;5112757;28;20448;-76